Time Latitude Longitude Accuracy (66% radius in meters) Altitude (meters) Speed (km/hour) Bearing (degrees) Battery (%) GPS flag
03:58:08 51.898425 107.665095 3.7000000476837 693.9 2.6230244636536 285.88000488281 59 1 delete
03:58:06 51.898350 107.665247 3.7999999523163 694.5 6.8216137886047 305.17999267578 59 1 delete
03:58:03 51.898277 107.665358 3.9000000953674 693.5 0 102.34999847412 59 1 delete
03:57:52 51.898282 107.665372 4.1999998092651 694.6 0 102.34999847412 63 1 delete
03:57:40 51.898288 107.665372 3.9000000953674 694.6 0 152.25 63 1 delete
03:57:29 51.898295 107.665360 3.5 692.3 0 181.25999450684 63 1 delete
03:57:23 51.898273 107.665347 3.4000000953674 691.5 0 119.87000274658 63 1 delete
03:57:17 51.898243 107.665230 3 692.4 0 119.87000274658 63 1 delete
03:57:06 51.898250 107.665237 3.2000000476837 689.3 0 119.87000274658 63 1 delete
03:56:59 51.898275 107.665200 3.4000000953674 685.5 0 126.44999694824 63 1 delete
03:56:54 51.898295 107.665115 3.2999999523163 681.3 0 336.76998901367 63 1 delete
03:56:47 51.898303 107.665060 3.2999999523163 677.2 0 336.76998901367 63 1 delete
03:56:43 51.898267 107.665008 3.2000000476837 674 1.9636652469635 336.76998901367 63 1 delete
03:56:36 51.898217 107.664958 3.2999999523163 667.8 3.0739212036133 77.51000213623 63 1 delete
03:56:32 51.898188 107.664827 3.2000000476837 664.5 0 12.260000228882 63 1 delete
03:56:30 51.898180 107.664815 3.2000000476837 663.1 1.4201185703278 347.39999389648 63 1 delete
03:56:20 51.898177 107.664668 3.2999999523163 653.7 0 290.61999511719 63 1 delete
03:56:14 51.898137 107.664530 3.4000000953674 649 3.3806955814362 71.769996643066 63 1 delete
03:56:09 51.898137 107.664430 3.4000000953674 647.5 0 54.740001678467 63 1 delete
03:56:05 51.898128 107.664347 3.5999999046326 644.8 2.9653146266937 68.470001220703 63 1 delete
03:56:01 51.898093 107.664185 3.5999999046326 643.8 3.1362025737762 77.900001525879 63 1 delete
03:55:57 51.898043 107.664095 3.5999999046326 643.5 1.3161447048187 10.449999809265 63 1 delete
03:55:56 51.898033 107.664075 3.7000000476837 643.6 2.6796438694 10.449999809265 63 1 delete
03:55:52 51.897955 107.663958 3.7000000476837 643.8 2.1813926696777 55.790000915527 63 1 delete
03:55:47 51.897898 107.663815 3.5999999046326 645 0 63.639999389648 63 1 delete
03:55:46 51.897893 107.663802 3.7000000476837 645.7 0 63.639999389648 63 1 delete
03:55:42 51.897863 107.663668 3.9000000953674 647.5 3.3029725551605 65.660003662109 63 1 delete
03:55:38 51.897805 107.663552 3.7999999523163 649.3 2.5478749275208 64 63 1 delete
03:55:34 51.897772 107.663513 3.7000000476837 651 0 57.950000762939 63 1 delete
03:55:29 51.897732 107.663453 3.9000000953674 652.7 3.4373149871826 74.059997558594 63 1 delete
03:55:24 51.897675 107.663305 3.7999999523163 656 2.2771310806274 35.990001678467 63 1 delete
03:55:23 51.897658 107.663295 3.7999999523163 656.8 1.6785091161728 19.010000228882 63 1 delete
03:55:18 51.897587 107.663217 3.7999999523163 659.8 4.0029945373535 58.950000762939 63 1 delete
03:55:14 51.897523 107.663105 3.5999999046326 662.4 3.8305628299713 54.220001220703 63 1 delete
03:55:11 51.897458 107.663023 3.5 664.5 2.4948585033417 3.4700000286102 63 1 delete
03:55:10 51.897440 107.663005 3.5 665.2 2.6436133384705 349.44000244141 63 1 delete
03:55:05 51.897360 107.662902 3.2000000476837 668.3 3.4887871742249 52.169998168945 63 1 delete
03:55:01 51.897292 107.662768 3.0999999046326 671 1.7238047122955 36.680000305176 63 1 delete
03:54:59 51.897267 107.662735 3.0999999046326 672.4 1.3454838991165 11.680000305176 63 1 delete
03:54:53 51.897208 107.662702 3.0999999046326 676.7 2.4691224098206 22.200000762939 63 1 delete
03:54:47 51.897108 107.662708 2.5 681.6 1.0860638618469 345.86999511719 63 1 delete
03:54:37 51.897023 107.662762 3.2000000476837 678.7 0 229.25999450684 63 1 delete
03:54:36 51.897003 107.662795 3.4000000953674 679.3 1.0942994356155 15.319999694824 63 1 delete
03:54:31 51.896923 107.662828 3.5 679.5 1.1478306055069 88.169998168945 63 1 delete
03:54:25 51.896922 107.662735 3.2999999523163 678.9 0 240.25 63 1 delete
03:54:13 51.896957 107.662705 3.2000000476837 678.4 1.3846027851105 10.590000152588 63 1 delete
03:54:12 51.896947 107.662680 3.2999999523163 678.1 1.0510628223419 30.020000457764 63 1 delete
03:54:07 51.896898 107.662555 3.2000000476837 678 2.3100733757019 77.110000610352 63 1 delete
03:54:01 51.896870 107.662407 3.0999999046326 678.8 0 5.7300000190735 63 1 delete
03:54:00 51.896865 107.662393 3.2000000476837 678.9 1.3521752357483 331.5299987793 63 1 delete